sensor_id;sensor_type;location;lat;lon;timestamp;P1;durP1;ratioP1;P2;durP2;ratioP2
30173;SDS011;16985;50.814;8.530;2023-06-01T00:01:38;8.90;;;2.67;;
30173;SDS011;16985;50.814;8.530;2023-06-01T00:04:06;6.67;;;3.03;;
30173;SDS011;16985;50.814;8.530;2023-06-01T00:06:38;8.40;;;2.35;;
30173;SDS011;16985;50.814;8.530;2023-06-01T00:09:06;3.53;;;2.58;;
30173;SDS011;16985;50.814;8.530;2023-06-01T00:11:42;4.50;;;2.50;;
30173;SDS011;16985;50.814;8.530;2023-06-01T00:14:22;4.30;;;2.35;;
30173;SDS011;16985;50.814;8.530;2023-06-01T00:16:49;5.00;;;2.60;;
30173;SDS011;16985;50.814;8.530;2023-06-01T00:19:17;4.88;;;3.47;;
30173;SDS011;16985;50.814;8.530;2023-06-01T00:21:48;3.75;;;1.85;;
30173;SDS011;16985;50.814;8.530;2023-06-01T00:24:20;8.63;;;2.17;;
30173;SDS011;16985;50.814;8.530;2023-06-01T00:26:48;4.25;;;2.70;;
30173;SDS011;16985;50.814;8.530;2023-06-01T00:29:15;6.70;;;2.72;;
30173;SDS011;16985;50.814;8.530;2023-06-01T00:31:45;6.10;;;2.90;;
30173;SDS011;16985;50.814;8.530;2023-06-01T00:34:15;3.97;;;3.00;;
30173;SDS011;16985;50.814;8.530;2023-06-01T00:36:42;6.60;;;2.30;;
30173;SDS011;16985;50.814;8.530;2023-06-01T00:39:12;4.25;;;2.47;;
30173;SDS011;16985;50.814;8.530;2023-06-01T00:41:39;5.28;;;1.98;;
30173;SDS011;16985;50.814;8.530;2023-06-01T00:44:15;3.58;;;2.70;;
30173;SDS011;16985;50.814;8.530;2023-06-01T00:46:42;3.65;;;2.30;;
30173;SDS011;16985;50.814;8.530;2023-06-01T00:49:09;4.03;;;2.15;;
30173;SDS011;16985;50.814;8.530;2023-06-01T00:51:43;3.75;;;2.60;;
30173;SDS011;16985;50.814;8.530;2023-06-01T00:54:10;6.30;;;2.45;;
30173;SDS011;16985;50.814;8.530;2023-06-01T00:56:37;3.90;;;2.40;;
30173;SDS011;16985;50.814;8.530;2023-06-01T00:59:16;6.40;;;2.50;;
30173;SDS011;16985;50.814;8.530;2023-06-01T01:01:45;4.25;;;2.22;;
30173;SDS011;16985;50.814;8.530;2023-06-01T01:04:11;7.22;;;2.97;;
30173;SDS011;16985;50.814;8.530;2023-06-01T01:07:02;5.57;;;2.42;;
30173;SDS011;16985;50.814;8.530;2023-06-01T01:10:19;4.15;;;2.47;;
30173;SDS011;16985;50.814;8.530;2023-06-01T01:15:50;5.20;;;2.38;;
30173;SDS011;16985;50.814;8.530;2023-06-01T01:18:44;7.25;;;3.22;;
30173;SDS011;16985;50.814;8.530;2023-06-01T01:21:23;5.53;;;3.05;;
30173;SDS011;16985;50.814;8.530;2023-06-01T01:24:05;5.72;;;3.08;;
30173;SDS011;16985;50.814;8.530;2023-06-01T01:27:18;5.22;;;2.80;;
30173;SDS011;16985;50.814;8.530;2023-06-01T01:30:18;4.88;;;2.45;;
30173;SDS011;16985;50.814;8.530;2023-06-01T01:32:59;6.15;;;3.42;;
30173;SDS011;16985;50.814;8.530;2023-06-01T01:35:32;3.80;;;2.33;;
30173;SDS011;16985;50.814;8.530;2023-06-01T01:38:02;6.07;;;2.95;;
30173;SDS011;16985;50.814;8.530;2023-06-01T01:40:33;3.80;;;2.25;;
30173;SDS011;16985;50.814;8.530;2023-06-01T01:43:05;7.57;;;2.72;;
30173;SDS011;16985;50.814;8.530;2023-06-01T01:45:34;3.20;;;2.35;;
30173;SDS011;16985;50.814;8.530;2023-06-01T01:48:13;3.08;;;2.30;;
30173;SDS011;16985;50.814;8.530;2023-06-01T01:51:01;3.70;;;2.40;;
30173;SDS011;16985;50.814;8.530;2023-06-01T01:53:37;5.18;;;2.40;;
30173;SDS011;16985;50.814;8.530;2023-06-01T01:56:13;7.85;;;3.00;;
30173;SDS011;16985;50.814;8.530;2023-06-01T01:58:47;4.40;;;3.15;;
30173;SDS011;16985;50.814;8.530;2023-06-01T02:01:16;6.30;;;2.50;;
30173;SDS011;16985;50.814;8.530;2023-06-01T02:03:46;4.60;;;2.67;;
30173;SDS011;16985;50.814;8.530;2023-06-01T02:06:28;4.13;;;3.42;;
30173;SDS011;16985;50.814;8.530;2023-06-01T02:09:01;7.57;;;2.70;;
30173;SDS011;16985;50.814;8.530;2023-06-01T02:11:33;3.83;;;2.38;;
30173;SDS011;16985;50.814;8.530;2023-06-01T02:14:09;6.22;;;2.42;;
30173;SDS011;16985;50.814;8.530;2023-06-01T02:16:44;5.68;;;3.05;;
30173;SDS011;16985;50.814;8.530;2023-06-01T02:19:11;5.80;;;2.30;;
30173;SDS011;16985;50.814;8.530;2023-06-01T02:21:44;4.35;;;2.72;;
30173;SDS011;16985;50.814;8.530;2023-06-01T02:24:14;4.65;;;2.58;;
30173;SDS011;16985;50.814;8.530;2023-06-01T02:26:42;4.28;;;2.95;;
30173;SDS011;16985;50.814;8.530;2023-06-01T02:29:19;5.07;;;3.00;;
30173;SDS011;16985;50.814;8.530;2023-06-01T02:31:49;4.40;;;3.00;;
30173;SDS011;16985;50.814;8.530;2023-06-01T02:34:19;7.38;;;2.97;;
30173;SDS011;16985;50.814;8.530;2023-06-01T02:36:48;7.68;;;2.58;;
30173;SDS011;16985;50.814;8.530;2023-06-01T02:39:22;5.72;;;2.63;;
30173;SDS011;16985;50.814;8.530;2023-06-01T02:41:51;5.20;;;2.50;;
30173;SDS011;16985;50.814;8.530;2023-06-01T02:44:19;7.97;;;3.00;;
30173;SDS011;16985;50.814;8.530;2023-06-01T02:46:58;6.85;;;2.25;;
30173;SDS011;16985;50.814;8.530;2023-06-01T02:49:26;6.95;;;2.78;;
30173;SDS011;16985;50.814;8.530;2023-06-01T02:51:54;8.25;;;2.90;;
30173;SDS011;16985;50.814;8.530;2023-06-01T02:54:24;8.43;;;2.78;;
30173;SDS011;16985;50.814;8.530;2023-06-01T02:57:18;3.65;;;2.30;;
30173;SDS011;16985;50.814;8.530;2023-06-01T03:00:15;4.75;;;2.45;;
30173;SDS011;16985;50.814;8.530;2023-06-01T03:02:43;6.00;;;2.15;;
30173;SDS011;16985;50.814;8.530;2023-06-01T03:05:11;2.83;;;2.60;;
30173;SDS011;16985;50.814;8.530;2023-06-01T03:07:41;4.75;;;2.42;;
30173;SDS011;16985;50.814;8.530;2023-06-01T03:10:25;5.78;;;2.63;;
30173;SDS011;16985;50.814;8.530;2023-06-01T03:13:09;6.05;;;2.63;;
30173;SDS011;16985;50.814;8.530;2023-06-01T03:15:38;4.60;;;2.53;;
30173;SDS011;16985;50.814;8.530;2023-06-01T03:18:16;5.07;;;2.92;;
30173;SDS011;16985;50.814;8.530;2023-06-01T03:20:44;4.68;;;2.85;;
30173;SDS011;16985;50.814;8.530;2023-06-01T03:23:18;4.32;;;2.30;;
30173;SDS011;16985;50.814;8.530;2023-06-01T03:25:48;2.92;;;2.05;;
30173;SDS011;16985;50.814;8.530;2023-06-01T03:28:16;4.72;;;2.65;;
30173;SDS011;16985;50.814;8.530;2023-06-01T03:30:48;4.32;;;2.83;;
30173;SDS011;16985;50.814;8.530;2023-06-01T03:33:16;2.88;;;2.28;;
30173;SDS011;16985;50.814;8.530;2023-06-01T03:35:52;3.58;;;2.53;;
30173;SDS011;16985;50.814;8.530;2023-06-01T03:38:19;5.18;;;2.33;;
30173;SDS011;16985;50.814;8.530;2023-06-01T03:40:46;3.33;;;2.38;;
30173;SDS011;16985;50.814;8.530;2023-06-01T03:43:15;3.22;;;2.47;;
30173;SDS011;16985;50.814;8.530;2023-06-01T03:45:42;4.95;;;2.75;;
30173;SDS011;16985;50.814;8.530;2023-06-01T03:48:19;2.72;;;2.50;;
30173;SDS011;16985;50.814;8.530;2023-06-01T03:50:46;4.45;;;3.00;;
30173;SDS011;16985;50.814;8.530;2023-06-01T03:53:17;4.72;;;2.70;;
30173;SDS011;16985;50.814;8.530;2023-06-01T03:58:26;8.27;;;2.60;;
30173;SDS011;16985;50.814;8.530;2023-06-01T04:00:53;3.70;;;2.40;;
30173;SDS011;16985;50.814;8.530;2023-06-01T04:03:24;5.07;;;2.75;;
30173;SDS011;16985;50.814;8.530;2023-06-01T04:05:52;6.45;;;3.80;;
30173;SDS011;16985;50.814;8.530;2023-06-01T04:08:26;5.30;;;2.88;;
30173;SDS011;16985;50.814;8.530;2023-06-01T04:10:57;5.03;;;3.17;;
30173;SDS011;16985;50.814;8.530;2023-06-01T04:15:58;3.70;;;2.75;;
30173;SDS011;16985;50.814;8.530;2023-06-01T04:18:27;5.25;;;2.72;;
30173;SDS011;16985;50.814;8.530;2023-06-01T04:20:59;4.45;;;3.17;;
30173;SDS011;16985;50.814;8.530;2023-06-01T04:23:26;5.43;;;2.92;;
30173;SDS011;16985;50.814;8.530;2023-06-01T04:25:53;6.50;;;2.42;;
30173;SDS011;16985;50.814;8.530;2023-06-01T04:28:26;6.85;;;3.05;;
30173;SDS011;16985;50.814;8.530;2023-06-01T04:30:56;5.30;;;2.63;;
30173;SDS011;16985;50.814;8.530;2023-06-01T04:33:31;3.85;;;2.60;;
30173;SDS011;16985;50.814;8.530;2023-06-01T04:36:05;4.30;;;2.72;;
30173;SDS011;16985;50.814;8.530;2023-06-01T04:38:33;7.13;;;3.75;;
30173;SDS011;16985;50.814;8.530;2023-06-01T04:43:51;4.10;;;2.53;;
30173;SDS011;16985;50.814;8.530;2023-06-01T04:46:22;6.55;;;2.90;;
30173;SDS011;16985;50.814;8.530;2023-06-01T04:48:54;4.47;;;2.90;;
30173;SDS011;16985;50.814;8.530;2023-06-01T04:51:25;6.40;;;3.22;;
30173;SDS011;16985;50.814;8.530;2023-06-01T04:53:54;8.20;;;3.10;;
30173;SDS011;16985;50.814;8.530;2023-06-01T04:56:29;4.07;;;2.97;;
30173;SDS011;16985;50.814;8.530;2023-06-01T04:58:55;5.03;;;2.78;;
30173;SDS011;16985;50.814;8.530;2023-06-01T05:01:28;5.82;;;3.10;;
30173;SDS011;16985;50.814;8.530;2023-06-01T05:03:56;3.67;;;2.65;;
30173;SDS011;16985;50.814;8.530;2023-06-01T05:06:27;8.00;;;2.72;;
30173;SDS011;16985;50.814;8.530;2023-06-01T05:08:59;3.80;;;2.92;;
30173;SDS011;16985;50.814;8.530;2023-06-01T05:11:46;6.80;;;3.17;;
30173;SDS011;16985;50.814;8.530;2023-06-01T05:14:15;4.05;;;2.83;;
30173;SDS011;16985;50.814;8.530;2023-06-01T05:16:55;9.57;;;2.75;;
30173;SDS011;16985;50.814;8.530;2023-06-01T05:19:22;6.88;;;3.15;;
30173;SDS011;16985;50.814;8.530;2023-06-01T05:21:50;4.55;;;3.13;;
30173;SDS011;16985;50.814;8.530;2023-06-01T05:24:18;5.32;;;2.78;;
30173;SDS011;16985;50.814;8.530;2023-06-01T05:26:49;6.53;;;2.70;;
30173;SDS011;16985;50.814;8.530;2023-06-01T05:29:16;5.35;;;2.92;;
30173;SDS011;16985;50.814;8.530;2023-06-01T05:31:45;4.88;;;3.00;;
30173;SDS011;16985;50.814;8.530;2023-06-01T05:34:13;4.97;;;2.78;;
30173;SDS011;16985;50.814;8.530;2023-06-01T05:36:41;5.10;;;2.60;;
30173;SDS011;16985;50.814;8.530;2023-06-01T05:39:07;9.57;;;3.38;;
30173;SDS011;16985;50.814;8.530;2023-06-01T05:41:39;5.13;;;2.42;;
30173;SDS011;16985;50.814;8.530;2023-06-01T05:44:09;5.03;;;2.83;;
30173;SDS011;16985;50.814;8.530;2023-06-01T05:46:46;7.00;;;3.45;;
30173;SDS011;16985;50.814;8.530;2023-06-01T05:49:22;10.05;;;3.67;;
30173;SDS011;16985;50.814;8.530;2023-06-01T05:51:49;5.43;;;3.10;;
30173;SDS011;16985;50.814;8.530;2023-06-01T05:54:17;5.45;;;3.30;;
30173;SDS011;16985;50.814;8.530;2023-06-01T05:56:43;4.97;;;3.15;;
30173;SDS011;16985;50.814;8.530;2023-06-01T05:59:12;6.20;;;3.10;;
30173;SDS011;16985;50.814;8.530;2023-06-01T06:01:42;7.55;;;3.55;;
30173;SDS011;16985;50.814;8.530;2023-06-01T06:04:39;6.38;;;3.40;;
30173;SDS011;16985;50.814;8.530;2023-06-01T06:07:11;4.78;;;3.22;;
30173;SDS011;16985;50.814;8.530;2023-06-01T06:09:40;8.10;;;3.38;;
30173;SDS011;16985;50.814;8.530;2023-06-01T06:12:12;6.22;;;4.03;;
30173;SDS011;16985;50.814;8.530;2023-06-01T06:14:39;8.02;;;2.95;;
30173;SDS011;16985;50.814;8.530;2023-06-01T06:17:05;9.35;;;3.78;;
30173;SDS011;16985;50.814;8.530;2023-06-01T06:19:35;9.60;;;3.60;;
30173;SDS011;16985;50.814;8.530;2023-06-01T06:22:09;5.47;;;3.17;;
30173;SDS011;16985;50.814;8.530;2023-06-01T06:24:39;9.93;;;3.30;;
30173;SDS011;16985;50.814;8.530;2023-06-01T06:27:08;10.43;;;3.60;;
30173;SDS011;16985;50.814;8.530;2023-06-01T06:29:35;7.82;;;2.92;;
30173;SDS011;16985;50.814;8.530;2023-06-01T06:32:04;5.38;;;3.03;;
30173;SDS011;16985;50.814;8.530;2023-06-01T06:34:36;9.75;;;3.53;;
30173;SDS011;16985;50.814;8.530;2023-06-01T06:37:05;8.18;;;3.80;;
30173;SDS011;16985;50.814;8.530;2023-06-01T06:39:33;6.93;;;3.13;;
30173;SDS011;16985;50.814;8.530;2023-06-01T06:42:05;7.97;;;2.72;;
30173;SDS011;16985;50.814;8.530;2023-06-01T06:44:32;7.10;;;3.45;;
30173;SDS011;16985;50.814;8.530;2023-06-01T06:47:01;12.27;;;3.30;;
30173;SDS011;16985;50.814;8.530;2023-06-01T06:49:30;8.15;;;2.95;;
30173;SDS011;16985;50.814;8.530;2023-06-01T06:51:56;8.15;;;3.30;;
30173;SDS011;16985;50.814;8.530;2023-06-01T06:54:23;7.50;;;2.95;;
30173;SDS011;16985;50.814;8.530;2023-06-01T06:56:49;7.70;;;3.10;;
30173;SDS011;16985;50.814;8.530;2023-06-01T06:59:15;8.32;;;3.05;;
30173;SDS011;16985;50.814;8.530;2023-06-01T07:01:41;6.55;;;3.10;;
30173;SDS011;16985;50.814;8.530;2023-06-01T07:04:07;5.18;;;3.03;;
30173;SDS011;16985;50.814;8.530;2023-06-01T07:06:34;7.28;;;3.17;;
30173;SDS011;16985;50.814;8.530;2023-06-01T07:08:59;6.82;;;2.97;;
30173;SDS011;16985;50.814;8.530;2023-06-01T07:11:26;5.35;;;3.13;;
30173;SDS011;16985;50.814;8.530;2023-06-01T07:14:01;10.10;;;3.33;;
30173;SDS011;16985;50.814;8.530;2023-06-01T07:16:27;5.72;;;2.97;;
30173;SDS011;16985;50.814;8.530;2023-06-01T07:18:56;9.63;;;3.20;;
30173;SDS011;16985;50.814;8.530;2023-06-01T07:21:23;7.85;;;3.03;;
30173;SDS011;16985;50.814;8.530;2023-06-01T07:23:58;13.73;;;3.65;;
30173;SDS011;16985;50.814;8.530;2023-06-01T07:26:25;6.32;;;3.42;;
30173;SDS011;16985;50.814;8.530;2023-06-01T07:28:54;10.32;;;3.53;;
30173;SDS011;16985;50.814;8.530;2023-06-01T07:31:22;5.45;;;3.03;;
30173;SDS011;16985;50.814;8.530;2023-06-01T07:36:18;7.95;;;3.03;;
30173;SDS011;16985;50.814;8.530;2023-06-01T07:38:49;3.13;;;2.83;;
30173;SDS011;16985;50.814;8.530;2023-06-01T07:41:16;6.70;;;2.92;;
30173;SDS011;16985;50.814;8.530;2023-06-01T07:43:43;6.75;;;3.20;;
30173;SDS011;16985;50.814;8.530;2023-06-01T07:46:12;11.25;;;3.20;;
30173;SDS011;16985;50.814;8.530;2023-06-01T07:48:38;6.85;;;2.60;;
30173;SDS011;16985;50.814;8.530;2023-06-01T07:53:33;5.32;;;2.75;;
30173;SDS011;16985;50.814;8.530;2023-06-01T07:58:27;8.60;;;3.55;;
30173;SDS011;16985;50.814;8.530;2023-06-01T08:00:55;8.27;;;3.15;;
30173;SDS011;16985;50.814;8.530;2023-06-01T08:03:22;7.03;;;2.70;;
30173;SDS011;16985;50.814;8.530;2023-06-01T08:05:51;4.70;;;2.72;;
30173;SDS011;16985;50.814;8.530;2023-06-01T08:08:23;8.93;;;2.92;;
30173;SDS011;16985;50.814;8.530;2023-06-01T08:10:50;7.47;;;2.90;;
30173;SDS011;16985;50.814;8.530;2023-06-01T08:13:19;6.35;;;2.80;;
30173;SDS011;16985;50.814;8.530;2023-06-01T08:15:45;6.10;;;2.80;;
30173;SDS011;16985;50.814;8.530;2023-06-01T08:18:15;9.88;;;2.60;;
30173;SDS011;16985;50.814;8.530;2023-06-01T08:20:42;4.53;;;2.95;;
30173;SDS011;16985;50.814;8.530;2023-06-01T08:23:10;7.05;;;2.83;;
30173;SDS011;16985;50.814;8.530;2023-06-01T08:25:36;6.93;;;2.80;;
30173;SDS011;16985;50.814;8.530;2023-06-01T08:28:02;8.52;;;3.00;;
30173;SDS011;16985;50.814;8.530;2023-06-01T08:30:28;4.25;;;2.65;;
30173;SDS011;16985;50.814;8.530;2023-06-01T08:32:56;9.77;;;3.00;;
30173;SDS011;16985;50.814;8.530;2023-06-01T08:35:28;8.27;;;3.22;;
30173;SDS011;16985;50.814;8.530;2023-06-01T08:37:59;7.72;;;2.75;;
30173;SDS011;16985;50.814;8.530;2023-06-01T08:40:32;5.78;;;2.55;;
30173;SDS011;16985;50.814;8.530;2023-06-01T08:45:39;6.07;;;2.97;;
30173;SDS011;16985;50.814;8.530;2023-06-01T08:48:07;6.53;;;2.83;;
30173;SDS011;16985;50.814;8.530;2023-06-01T08:50:37;5.85;;;2.25;;
30173;SDS011;16985;50.814;8.530;2023-06-01T08:53:05;4.82;;;2.47;;
30173;SDS011;16985;50.814;8.530;2023-06-01T08:55:31;6.07;;;3.10;;
30173;SDS011;16985;50.814;8.530;2023-06-01T08:57:58;6.10;;;2.70;;
30173;SDS011;16985;50.814;8.530;2023-06-01T09:00:26;4.25;;;2.55;;
30173;SDS011;16985;50.814;8.530;2023-06-01T09:03:06;9.68;;;2.28;;
30173;SDS011;16985;50.814;8.530;2023-06-01T09:05:32;4.72;;;2.00;;
30173;SDS011;16985;50.814;8.530;2023-06-01T09:07:57;7.07;;;2.45;;
30173;SDS011;16985;50.814;8.530;2023-06-01T09:10:23;5.47;;;2.20;;
30173;SDS011;16985;50.814;8.530;2023-06-01T09:12:53;7.60;;;2.85;;
30173;SDS011;16985;50.814;8.530;2023-06-01T09:15:20;4.57;;;2.45;;
30173;SDS011;16985;50.814;8.530;2023-06-01T09:17:49;4.50;;;2.30;;
30173;SDS011;16985;50.814;8.530;2023-06-01T09:20:27;3.90;;;2.15;;
30173;SDS011;16985;50.814;8.530;2023-06-01T09:23:00;4.15;;;2.22;;
30173;SDS011;16985;50.814;8.530;2023-06-01T09:28:00;4.32;;;2.28;;
30173;SDS011;16985;50.814;8.530;2023-06-01T09:30:40;6.00;;;2.78;;
30173;SDS011;16985;50.814;8.530;2023-06-01T09:33:14;4.55;;;2.50;;
30173;SDS011;16985;50.814;8.530;2023-06-01T09:35:46;5.28;;;2.08;;
30173;SDS011;16985;50.814;8.530;2023-06-01T09:38:23;4.78;;;2.00;;
30173;SDS011;16985;50.814;8.530;2023-06-01T09:41:02;6.25;;;2.22;;
30173;SDS011;16985;50.814;8.530;2023-06-01T09:43:36;5.50;;;2.03;;
30173;SDS011;16985;50.814;8.530;2023-06-01T09:46:12;4.35;;;2.08;;
30173;SDS011;16985;50.814;8.530;2023-06-01T09:49:04;7.50;;;1.77;;
30173;SDS011;16985;50.814;8.530;2023-06-01T09:51:33;4.68;;;2.17;;
30173;SDS011;16985;50.814;8.530;2023-06-01T09:54:00;4.05;;;1.75;;
30173;SDS011;16985;50.814;8.530;2023-06-01T09:56:26;5.57;;;2.65;;
30173;SDS011;16985;50.814;8.530;2023-06-01T09:58:58;2.72;;;1.42;;
30173;SDS011;16985;50.814;8.530;2023-06-01T10:01:34;5.43;;;2.17;;
30173;SDS011;16985;50.814;8.530;2023-06-01T10:04:01;4.65;;;1.98;;
30173;SDS011;16985;50.814;8.530;2023-06-01T10:06:32;2.28;;;1.45;;
30173;SDS011;16985;50.814;8.530;2023-06-01T10:09:02;6.90;;;2.05;;
30173;SDS011;16985;50.814;8.530;2023-06-01T10:13:56;2.38;;;1.75;;
30173;SDS011;16985;50.814;8.530;2023-06-01T10:16:25;4.20;;;2.25;;
30173;SDS011;16985;50.814;8.530;2023-06-01T10:18:51;2.88;;;1.95;;
30173;SDS011;16985;50.814;8.530;2023-06-01T10:21:20;2.03;;;1.30;;
30173;SDS011;16985;50.814;8.530;2023-06-01T10:23:57;4.38;;;1.98;;
30173;SDS011;16985;50.814;8.530;2023-06-01T10:26:26;4.35;;;1.58;;
30173;SDS011;16985;50.814;8.530;2023-06-01T10:28:55;1.35;;;1.10;;
30173;SDS011;16985;50.814;8.530;2023-06-01T10:31:38;4.07;;;1.10;;
30173;SDS011;16985;50.814;8.530;2023-06-01T10:34:07;3.20;;;1.30;;
30173;SDS011;16985;50.814;8.530;2023-06-01T10:37:22;1.67;;;0.95;;
30173;SDS011;16985;50.814;8.530;2023-06-01T10:39:32;4.25;;;1.50;;
30173;SDS011;16985;50.814;8.530;2023-06-01T10:50:19;2.08;;;1.20;;
30173;SDS011;16985;50.814;8.530;2023-06-01T10:52:33;4.38;;;1.65;;
30173;SDS011;16985;50.814;8.530;2023-06-01T10:57:35;2.13;;;1.42;;
30173;SDS011;16985;50.814;8.530;2023-06-01T11:00:21;2.30;;;1.40;;
30173;SDS011;16985;50.814;8.530;2023-06-01T11:05:36;3.17;;;1.60;;
30173;SDS011;16985;50.814;8.530;2023-06-01T11:13:32;3.17;;;1.77;;
30173;SDS011;16985;50.814;8.530;2023-06-01T11:18:51;3.63;;;1.55;;
30173;SDS011;16985;50.814;8.530;2023-06-01T11:24:12;3.13;;;1.80;;
30173;SDS011;16985;50.814;8.530;2023-06-01T11:26:47;2.05;;;1.70;;
30173;SDS011;16985;50.814;8.530;2023-06-01T11:29:21;2.83;;;2.15;;
30173;SDS011;16985;50.814;8.530;2023-06-01T11:31:55;3.42;;;1.95;;
30173;SDS011;16985;50.814;8.530;2023-06-01T11:34:39;3.85;;;2.00;;
30173;SDS011;16985;50.814;8.530;2023-06-01T11:37:12;3.72;;;2.50;;
30173;SDS011;16985;50.814;8.530;2023-06-01T11:39:44;2.58;;;1.60;;
30173;SDS011;16985;50.814;8.530;2023-06-01T11:42:17;2.80;;;2.10;;
30173;SDS011;16985;50.814;8.530;2023-06-01T11:44:58;4.10;;;1.73;;
30173;SDS011;16985;50.814;8.530;2023-06-01T11:47:30;7.88;;;2.58;;
30173;SDS011;16985;50.814;8.530;2023-06-01T11:50:20;3.42;;;1.92;;
30173;SDS011;16985;50.814;8.530;2023-06-01T11:52:51;3.45;;;2.60;;
30173;SDS011;16985;50.814;8.530;2023-06-01T11:55:29;3.75;;;2.50;;
30173;SDS011;16985;50.814;8.530;2023-06-01T11:57:56;3.70;;;2.45;;
30173;SDS011;16985;50.814;8.530;2023-06-01T12:00:25;3.88;;;2.25;;
30173;SDS011;16985;50.814;8.530;2023-06-01T12:03:04;5.00;;;2.60;;
30173;SDS011;16985;50.814;8.530;2023-06-01T12:05:43;5.40;;;3.10;;
30173;SDS011;16985;50.814;8.530;2023-06-01T12:08:16;5.07;;;2.78;;
30173;SDS011;16985;50.814;8.530;2023-06-01T12:10:50;4.90;;;2.58;;
30173;SDS011;16985;50.814;8.530;2023-06-01T12:13:18;8.77;;;3.13;;
30173;SDS011;16985;50.814;8.530;2023-06-01T12:15:45;5.18;;;3.70;;
30173;SDS011;16985;50.814;8.530;2023-06-01T12:18:28;5.43;;;3.40;;
30173;SDS011;16985;50.814;8.530;2023-06-01T12:20:56;6.07;;;2.90;;
30173;SDS011;16985;50.814;8.530;2023-06-01T12:23:25;7.57;;;4.07;;
30173;SDS011;16985;50.814;8.530;2023-06-01T12:25:51;7.13;;;3.75;;
30173;SDS011;16985;50.814;8.530;2023-06-01T12:28:26;7.25;;;4.22;;
30173;SDS011;16985;50.814;8.530;2023-06-01T12:31:07;9.13;;;4.72;;
30173;SDS011;16985;50.814;8.530;2023-06-01T12:33:36;7.25;;;3.58;;
30173;SDS011;16985;50.814;8.530;2023-06-01T12:36:03;7.75;;;3.10;;
30173;SDS011;16985;50.814;8.530;2023-06-01T12:38:35;5.50;;;3.08;;
30173;SDS011;16985;50.814;8.530;2023-06-01T12:41:09;5.35;;;3.33;;
30173;SDS011;16985;50.814;8.530;2023-06-01T12:43:38;7.13;;;3.55;;
30173;SDS011;16985;50.814;8.530;2023-06-01T12:46:04;3.83;;;3.07;;
30173;SDS011;16985;50.814;8.530;2023-06-01T12:48:34;4.97;;;2.95;;
30173;SDS011;16985;50.814;8.530;2023-06-01T12:51:02;3.10;;;2.45;;
30173;SDS011;16985;50.814;8.530;2023-06-01T12:53:30;4.82;;;2.95;;
30173;SDS011;16985;50.814;8.530;2023-06-01T12:56:00;7.40;;;3.55;;
30173;SDS011;16985;50.814;8.530;2023-06-01T12:58:32;5.03;;;3.20;;
30173;SDS011;16985;50.814;8.530;2023-06-01T13:00:58;4.03;;;2.78;;
30173;SDS011;16985;50.814;8.530;2023-06-01T13:03:29;5.68;;;3.10;;
30173;SDS011;16985;50.814;8.530;2023-06-01T13:05:56;6.45;;;3.67;;
30173;SDS011;16985;50.814;8.530;2023-06-01T13:08:23;3.40;;;2.60;;
30173;SDS011;16985;50.814;8.530;2023-06-01T13:10:50;5.63;;;2.95;;
30173;SDS011;16985;50.814;8.530;2023-06-01T13:15:45;5.38;;;3.22;;
30173;SDS011;16985;50.814;8.530;2023-06-01T13:18:12;5.40;;;3.50;;
30173;SDS011;16985;50.814;8.530;2023-06-01T13:23:07;5.05;;;3.38;;
30173;SDS011;16985;50.814;8.530;2023-06-01T13:25:36;7.95;;;3.78;;
30173;SDS011;16985;50.814;8.530;2023-06-01T13:28:09;4.93;;;3.70;;
30173;SDS011;16985;50.814;8.530;2023-06-01T13:30:37;7.32;;;3.60;;
30173;SDS011;16985;50.814;8.530;2023-06-01T13:33:05;4.47;;;3.72;;
30173;SDS011;16985;50.814;8.530;2023-06-01T13:35:34;6.28;;;4.22;;
30173;SDS011;16985;50.814;8.530;2023-06-01T13:38:03;6.10;;;3.97;;
30173;SDS011;16985;50.814;8.530;2023-06-01T13:40:30;5.30;;;3.90;;
30173;SDS011;16985;50.814;8.530;2023-06-01T13:43:09;5.80;;;4.30;;
30173;SDS011;16985;50.814;8.530;2023-06-01T13:45:35;6.45;;;4.43;;
30173;SDS011;16985;50.814;8.530;2023-06-01T13:48:05;6.55;;;4.28;;
30173;SDS011;16985;50.814;8.530;2023-06-01T13:50:33;5.95;;;3.90;;
30173;SDS011;16985;50.814;8.530;2023-06-01T13:52:59;8.52;;;4.72;;
30173;SDS011;16985;50.814;8.530;2023-06-01T13:55:35;11.38;;;4.97;;
30173;SDS011;16985;50.814;8.530;2023-06-01T13:58:04;6.25;;;4.03;;
30173;SDS011;16985;50.814;8.530;2023-06-01T14:00:31;5.90;;;4.07;;
30173;SDS011;16985;50.814;8.530;2023-06-01T14:03:02;6.82;;;4.57;;
30173;SDS011;16985;50.814;8.530;2023-06-01T14:07:55;5.60;;;3.83;;
30173;SDS011;16985;50.814;8.530;2023-06-01T14:10:23;7.93;;;3.92;;
30173;SDS011;16985;50.814;8.530;2023-06-01T14:12:50;6.32;;;3.85;;
30173;SDS011;16985;50.814;8.530;2023-06-01T14:15:17;5.85;;;4.15;;
30173;SDS011;16985;50.814;8.530;2023-06-01T14:17:46;8.27;;;4.28;;
30173;SDS011;16985;50.814;8.530;2023-06-01T14:20:16;6.10;;;4.65;;
30173;SDS011;16985;50.814;8.530;2023-06-01T14:22:46;8.13;;;4.18;;
30173;SDS011;16985;50.814;8.530;2023-06-01T14:25:13;7.25;;;3.40;;
30173;SDS011;16985;50.814;8.530;2023-06-01T14:27:39;5.32;;;3.85;;
30173;SDS011;16985;50.814;8.530;2023-06-01T14:30:08;5.32;;;4.00;;
30173;SDS011;16985;50.814;8.530;2023-06-01T14:32:35;7.07;;;4.07;;
30173;SDS011;16985;50.814;8.530;2023-06-01T14:35:02;10.35;;;3.97;;
30173;SDS011;16985;50.814;8.530;2023-06-01T14:37:29;7.03;;;4.50;;
30173;SDS011;16985;50.814;8.530;2023-06-01T14:40:00;5.15;;;4.03;;
30173;SDS011;16985;50.814;8.530;2023-06-01T14:42:27;6.00;;;4.30;;
30173;SDS011;16985;50.814;8.530;2023-06-01T14:44:53;5.55;;;3.97;;
30173;SDS011;16985;50.814;8.530;2023-06-01T14:47:21;6.40;;;4.10;;
30173;SDS011;16985;50.814;8.530;2023-06-01T14:49:47;7.70;;;4.40;;
30173;SDS011;16985;50.814;8.530;2023-06-01T14:52:14;6.93;;;4.53;;
30173;SDS011;16985;50.814;8.530;2023-06-01T14:54:40;6.25;;;4.80;;
30173;SDS011;16985;50.814;8.530;2023-06-01T14:57:10;6.28;;;4.55;;
30173;SDS011;16985;50.814;8.530;2023-06-01T14:59:37;7.63;;;4.47;;
30173;SDS011;16985;50.814;8.530;2023-06-01T15:02:03;6.90;;;4.20;;
30173;SDS011;16985;50.814;8.530;2023-06-01T15:04:32;6.63;;;4.13;;
30173;SDS011;16985;50.814;8.530;2023-06-01T15:09:27;6.43;;;4.32;;
30173;SDS011;16985;50.814;8.530;2023-06-01T15:11:55;5.63;;;4.20;;
30173;SDS011;16985;50.814;8.530;2023-06-01T15:14:22;7.78;;;4.18;;
30173;SDS011;16985;50.814;8.530;2023-06-01T15:16:50;9.45;;;4.88;;
30173;SDS011;16985;50.814;8.530;2023-06-01T15:19:17;7.68;;;4.20;;
30173;SDS011;16985;50.814;8.530;2023-06-01T15:21:43;5.40;;;4.07;;
30173;SDS011;16985;50.814;8.530;2023-06-01T15:24:09;8.32;;;4.78;;
30173;SDS011;16985;50.814;8.530;2023-06-01T15:26:41;6.43;;;5.00;;
30173;SDS011;16985;50.814;8.530;2023-06-01T15:29:10;8.05;;;4.50;;
30173;SDS011;16985;50.814;8.530;2023-06-01T15:31:38;5.60;;;4.22;;
30173;SDS011;16985;50.814;8.530;2023-06-01T15:36:42;9.23;;;4.68;;
30173;SDS011;16985;50.814;8.530;2023-06-01T15:39:12;7.65;;;4.13;;
30173;SDS011;16985;50.814;8.530;2023-06-01T15:41:41;8.43;;;4.13;;
30173;SDS011;16985;50.814;8.530;2023-06-01T15:44:07;5.40;;;3.88;;
30173;SDS011;16985;50.814;8.530;2023-06-01T15:46:33;7.55;;;4.40;;
30173;SDS011;16985;50.814;8.530;2023-06-01T15:49:04;7.68;;;4.65;;
30173;SDS011;16985;50.814;8.530;2023-06-01T15:51:30;8.98;;;4.00;;
30173;SDS011;16985;50.814;8.530;2023-06-01T15:53:58;6.35;;;4.53;;
30173;SDS011;16985;50.814;8.530;2023-06-01T15:56:26;4.72;;;3.72;;
30173;SDS011;16985;50.814;8.530;2023-06-01T15:59:02;5.43;;;4.03;;
30173;SDS011;16985;50.814;8.530;2023-06-01T16:01:30;7.00;;;4.13;;
30173;SDS011;16985;50.814;8.530;2023-06-01T16:03:59;6.78;;;4.00;;
30173;SDS011;16985;50.814;8.530;2023-06-01T16:06:27;6.35;;;4.32;;
30173;SDS011;16985;50.814;8.530;2023-06-01T16:08:53;5.22;;;4.38;;
30173;SDS011;16985;50.814;8.530;2023-06-01T16:11:22;4.78;;;3.70;;
30173;SDS011;16985;50.814;8.530;2023-06-01T16:13:49;6.47;;;4.40;;